createdAt,value
2022-12-16T00:01:02.482Z,-2.07
2022-12-16T00:04:04.388Z,-2.30
2022-12-16T00:07:05.932Z,-2.22
2022-12-16T00:10:08.463Z,-2.25
2022-12-16T00:13:10.753Z,-2.36
2022-12-16T00:16:14.560Z,-2.42
2022-12-16T00:19:16.199Z,-2.48
2022-12-16T00:22:17.805Z,-2.44
2022-12-16T00:25:19.336Z,-2.42
2022-12-16T00:28:24.007Z,-2.32
2022-12-16T00:31:26.979Z,-2.38
2022-12-16T00:34:29.052Z,-2.34
2022-12-16T00:37:30.534Z,-2.41
2022-12-16T00:40:32.095Z,-2.48
2022-12-16T00:43:34.001Z,-2.53
2022-12-16T00:46:35.863Z,-2.58
2022-12-16T00:49:37.485Z,-2.48
2022-12-16T00:52:39.058Z,-2.46
2022-12-16T00:55:40.600Z,-2.23
2022-12-16T00:58:42.584Z,-2.17
2022-12-16T01:01:44.264Z,-2.11
2022-12-16T01:04:45.990Z,-1.99
2022-12-16T01:07:48.299Z,-1.98
2022-12-16T01:10:51.984Z,-2.07
2022-12-16T01:13:55.198Z,-1.90
2022-12-16T01:16:57.167Z,-1.86
2022-12-16T01:19:58.736Z,-2.01
2022-12-16T01:23:00.486Z,-2.01
2022-12-16T01:26:02.774Z,-2.10
2022-12-16T01:29:04.304Z,-2.09
2022-12-16T01:32:06.469Z,-2.13
2022-12-16T01:35:29.517Z,-2.04
2022-12-16T01:38:30.251Z,-1.97
2022-12-16T01:41:31.894Z,-1.91
2022-12-16T01:44:34.323Z,-1.82
2022-12-16T01:47:35.847Z,-1.77
2022-12-16T01:50:37.463Z,-1.70
2022-12-16T01:53:42.260Z,-1.79
2022-12-16T01:56:54.957Z,-1.90
2022-12-16T01:59:57.614Z,-1.86
2022-12-16T02:03:00.395Z,-1.89
2022-12-16T02:06:03.908Z,-1.94
2022-12-16T02:09:08.418Z,-2.00
2022-12-16T02:12:22.976Z,-2.06
2022-12-16T02:15:55.997Z,-2.20
2022-12-16T02:19:25.096Z,-2.41
2022-12-16T02:22:57.508Z,-2.39
2022-12-16T02:26:34.185Z,-2.16
2022-12-16T02:30:03.018Z,-2.29
2022-12-16T02:33:14.270Z,-2.35
2022-12-16T02:36:25.545Z,-2.35
2022-12-16T02:39:49.191Z,-2.31
2022-12-16T02:42:57.550Z,-2.38
2022-12-16T02:45:59.708Z,-2.41
2022-12-16T02:49:28.847Z,-2.44
2022-12-16T02:52:34.327Z,-2.38
2022-12-16T02:56:01.029Z,-2.24
2022-12-16T02:59:40.836Z,-2.09
2022-12-16T03:03:00.962Z,-2.02
2022-12-16T03:06:04.761Z,-1.97
2022-12-16T03:09:10.658Z,-1.98
2022-12-16T03:12:16.488Z,-2.03
2022-12-16T03:15:23.128Z,-2.10
2022-12-16T03:18:25.512Z,-2.03
2022-12-16T03:21:34.109Z,-1.92
2022-12-16T03:24:36.384Z,-2.08
2022-12-16T03:27:51.230Z,-2.15
2022-12-16T03:31:03.691Z,-2.25
2022-12-16T03:34:20.202Z,-2.25
2022-12-16T03:37:27.188Z,-2.20
2022-12-16T03:40:29.790Z,-2.18
2022-12-16T03:43:31.703Z,-2.18
2022-12-16T03:46:33.647Z,-2.09
2022-12-16T03:49:35.328Z,-2.09
2022-12-16T03:52:36.899Z,-2.22
2022-12-16T03:55:38.386Z,-2.16
2022-12-16T03:58:40.499Z,-2.27
2022-12-16T04:01:42.120Z,-2.25
2022-12-16T04:04:44.004Z,-2.28
2022-12-16T04:07:45.505Z,-2.30
2022-12-16T04:11:05.720Z,-2.16
2022-12-16T04:14:27.591Z,-2.16
2022-12-16T04:17:47.380Z,-2.29
2022-12-16T04:21:14.188Z,-2.26
2022-12-16T04:24:20.972Z,-2.24
2022-12-16T04:27:25.087Z,-2.29
2022-12-16T04:30:27.926Z,-2.39
2022-12-16T04:33:48.979Z,-2.35
2022-12-16T04:37:09.025Z,-2.33
2022-12-16T04:40:29.558Z,-2.33
2022-12-16T04:43:50.334Z,-2.18
2022-12-16T04:47:10.568Z,-2.23
2022-12-16T04:50:30.811Z,-2.23
2022-12-16T04:53:58.510Z,-2.18
2022-12-16T04:57:18.208Z,-2.01
2022-12-16T05:00:38.576Z,-2.09
2022-12-16T05:03:58.483Z,-2.13
2022-12-16T05:07:18.576Z,-2.13
2022-12-16T05:10:38.403Z,-2.24
2022-12-16T05:13:58.270Z,-2.24
2022-12-16T05:17:18.491Z,-2.21
2022-12-16T05:20:38.728Z,-2.21
2022-12-16T05:23:58.721Z,-2.07
2022-12-16T05:27:18.757Z,-2.09
2022-12-16T05:30:39.050Z,-2.18
2022-12-16T05:33:59.502Z,-2.18
2022-12-16T05:37:19.378Z,-2.03
2022-12-16T05:40:39.515Z,-2.00
2022-12-16T05:43:59.578Z,-2.02
2022-12-16T05:47:19.308Z,-1.99
2022-12-16T05:50:39.430Z,-2.08
2022-12-16T05:54:02.155Z,-2.18
2022-12-16T05:57:22.549Z,-2.15
2022-12-16T06:00:42.793Z,-2.11
2022-12-16T06:04:02.702Z,-2.08
2022-12-16T06:07:22.822Z,-2.02
2022-12-16T06:10:43.017Z,-2.00
2022-12-16T06:14:03.279Z,-2.00
2022-12-16T06:17:23.547Z,-2.15
2022-12-16T06:20:43.793Z,-2.18
2022-12-16T06:24:03.508Z,-2.09
2022-12-16T06:27:23.603Z,-2.17
2022-12-16T06:30:44.984Z,-2.10
2022-12-16T06:34:05.242Z,-1.98
2022-12-16T06:37:25.381Z,-2.05
2022-12-16T06:40:45.188Z,-1.98
2022-12-16T06:44:04.971Z,-1.96
2022-12-16T06:47:25.138Z,-1.97
2022-12-16T06:50:45.633Z,-2.02
2022-12-16T06:54:05.500Z,-1.97
2022-12-16T06:57:25.153Z,-1.93
2022-12-16T07:00:45.220Z,-1.88
2022-12-16T07:04:05.549Z,-1.93
2022-12-16T07:07:25.967Z,-2.05
2022-12-16T07:10:46.277Z,-2.10
2022-12-16T07:14:06.290Z,-2.26
2022-12-16T07:17:40.211Z,-2.26
2022-12-16T07:21:00.047Z,-2.34
2022-12-16T07:24:20.330Z,-2.38
2022-12-16T07:27:40.301Z,-2.33
2022-12-16T07:31:01.910Z,-2.23
2022-12-16T07:34:21.722Z,-2.28
2022-12-16T07:37:41.500Z,-2.25
2022-12-16T07:41:12.024Z,-2.27
2022-12-16T07:44:31.760Z,-2.20
2022-12-16T07:47:52.027Z,-2.13
2022-12-16T07:51:15.483Z,-2.15
2022-12-16T07:54:35.298Z,-2.09
2022-12-16T07:57:55.465Z,-2.02
2022-12-16T08:01:15.858Z,-2.03
2022-12-16T08:04:36.028Z,-1.99
2022-12-16T08:07:59.444Z,-1.91
2022-12-16T08:11:19.263Z,-2.08
2022-12-16T08:14:38.972Z,-1.99
2022-12-16T08:18:07.649Z,-1.76
2022-12-16T08:21:27.841Z,-1.55
2022-12-16T08:24:53.178Z,-1.38
2022-12-16T08:28:34.910Z,-1.32
2022-12-16T08:31:55.227Z,-1.23
2022-12-16T08:35:15.591Z,-1.18
2022-12-16T08:38:35.981Z,-1.36
2022-12-16T08:41:59.266Z,-1.26
2022-12-16T08:45:19.482Z,-1.32
2022-12-16T08:48:39.781Z,-1.44
2022-12-16T08:51:59.819Z,-1.56
2022-12-16T08:55:22.459Z,-1.53
2022-12-16T08:58:46.283Z,-1.43
2022-12-16T09:02:06.496Z,-1.13
2022-12-16T09:05:27.104Z,-1.11
2022-12-16T09:08:47.911Z,-1.07
2022-12-16T09:12:07.816Z,-1.00
2022-12-16T09:15:28.321Z,-0.99
2022-12-16T09:18:48.603Z,-0.86
2022-12-16T09:22:08.733Z,-0.78
2022-12-16T09:25:29.092Z,-0.83
2022-12-16T09:28:49.146Z,-1.02
2022-12-16T09:32:10.263Z,-1.00
2022-12-16T09:35:31.086Z,-1.02
2022-12-16T09:44:15.649Z,-1.22
2022-12-16T09:47:57.142Z,-1.16
2022-12-16T09:51:24.596Z,-1.26
2022-12-16T09:54:48.356Z,-1.34
2022-12-16T09:58:09.083Z,-1.25
2022-12-16T10:01:32.671Z,-1.36
2022-12-16T10:04:53.137Z,-1.45
2022-12-16T10:08:23.303Z,-1.61
2022-12-16T10:12:00.722Z,-1.64
2022-12-16T10:15:55.015Z,-1.50
2022-12-16T10:19:25.076Z,-1.43
2022-12-16T10:22:56.366Z,-1.50
2022-12-16T10:26:29.693Z,-1.53
2022-12-16T10:29:55.841Z,-1.39
2022-12-16T10:33:17.528Z,-1.37
2022-12-16T10:36:41.453Z,-1.29
2022-12-16T10:40:18.303Z,-1.40
2022-12-16T10:43:53.011Z,-1.10
2022-12-16T10:47:15.370Z,-0.75
2022-12-16T10:50:35.532Z,-0.43
2022-12-16T10:53:55.374Z,-0.09
2022-12-16T10:57:27.211Z,-0.01
2022-12-16T11:01:06.467Z,0.04
2022-12-16T11:04:56.336Z,-0.10
2022-12-16T11:08:16.527Z,0.10
2022-12-16T11:11:42.615Z,0.19
2022-12-16T11:15:28.753Z,0.06
2022-12-16T11:18:49.219Z,0.22
2022-12-16T11:22:09.405Z,0.31
2022-12-16T11:25:36.339Z,0.16
2022-12-16T11:28:56.436Z,0.39
2022-12-16T11:32:21.891Z,0.45
2022-12-16T11:35:45.675Z,0.57
2022-12-16T11:39:08.496Z,0.56
2022-12-16T11:42:39.522Z,0.23
2022-12-16T11:46:00.711Z,0.10
2022-12-16T11:49:27.259Z,0.11
2022-12-16T11:52:47.355Z,0.03
2022-12-16T11:56:16.348Z,0.00
2022-12-16T11:59:51.580Z,0.43
2022-12-16T12:03:25.771Z,0.53
2022-12-16T12:07:09.892Z,0.35
2022-12-16T12:10:43.522Z,0.25
2022-12-16T12:14:36.689Z,-0.05
2022-12-16T12:18:15.281Z,0.02
2022-12-16T12:21:48.853Z,0.16
2022-12-16T12:25:20.125Z,0.02
2022-12-16T12:28:49.287Z,-0.16
2022-12-16T12:32:24.297Z,-0.04
2022-12-16T12:36:04.112Z,-0.07
2022-12-16T12:39:49.352Z,-0.13
2022-12-16T12:43:13.912Z,-0.24
2022-12-16T12:46:44.940Z,-0.21
2022-12-16T12:50:27.669Z,-0.26
2022-12-16T12:53:47.637Z,-0.57
2022-12-16T12:57:10.257Z,-0.63
2022-12-16T13:00:36.761Z,-0.76
2022-12-16T13:04:14.330Z,-0.64
2022-12-16T13:07:34.710Z,-0.37
2022-12-16T13:10:57.058Z,-0.45
2022-12-16T13:14:17.574Z,-0.50
2022-12-16T13:17:39.590Z,-0.60
2022-12-16T13:20:59.402Z,-0.66
2022-12-16T13:24:39.144Z,-0.67
2022-12-16T13:28:11.994Z,-0.61
2022-12-16T13:31:33.079Z,-0.61
2022-12-16T13:34:53.562Z,-0.63
2022-12-16T13:38:48.039Z,-0.71
2022-12-16T13:42:09.939Z,-0.78
2022-12-16T13:46:20.737Z,-0.74
2022-12-16T13:49:56.190Z,-0.78
2022-12-16T13:53:21.699Z,-0.72
2022-12-16T13:56:52.283Z,-0.82
2022-12-16T14:00:13.307Z,-0.81
2022-12-16T14:03:39.939Z,-0.84
2022-12-16T14:07:00.305Z,-0.88
2022-12-16T14:10:20.738Z,-0.79
2022-12-16T14:14:02.535Z,-1.09
2022-12-16T14:17:29.242Z,-1.08
2022-12-16T14:20:59.967Z,-1.09
2022-12-16T14:24:31.022Z,-1.12
2022-12-16T14:27:52.779Z,-1.31
2022-12-16T14:31:32.360Z,-1.29
2022-12-16T14:34:55.303Z,-1.42
2022-12-16T14:38:16.657Z,-1.46
2022-12-16T14:41:40.771Z,-1.62
2022-12-16T14:45:03.891Z,-1.37
2022-12-16T14:48:54.200Z,-1.27
2022-12-16T14:52:14.621Z,-1.34
2022-12-16T14:55:38.654Z,-1.44
2022-12-16T14:59:21.343Z,-1.40
2022-12-16T15:02:50.327Z,-1.39
2022-12-16T15:06:11.979Z,-1.43
2022-12-16T15:09:46.390Z,-1.37
2022-12-16T15:13:08.299Z,-1.38
2022-12-16T15:16:37.222Z,-1.57
2022-12-16T15:20:04.290Z,-1.46
2022-12-16T15:23:39.561Z,-1.44
2022-12-16T15:26:59.698Z,-1.52
2022-12-16T15:30:19.737Z,-1.47
2022-12-16T15:33:58.780Z,-1.41
2022-12-16T15:37:32.598Z,-1.60
2022-12-16T15:40:57.175Z,-1.48
2022-12-16T15:44:20.399Z,-1.50
2022-12-16T15:47:49.862Z,-1.66
2022-12-16T15:51:12.778Z,-1.66
2022-12-16T15:54:41.950Z,-1.75
2022-12-16T15:58:15.381Z,-1.90
2022-12-16T16:01:40.033Z,-1.90
2022-12-16T16:05:03.223Z,-1.94
2022-12-16T16:08:23.857Z,-2.08
2022-12-16T16:11:44.050Z,-2.24
2022-12-16T16:15:03.994Z,-2.27
2022-12-16T16:18:24.605Z,-2.33
2022-12-16T16:21:45.378Z,-2.28
2022-12-16T16:25:05.240Z,-2.22
2022-12-16T16:28:27.537Z,-2.30
2022-12-16T16:31:47.322Z,-2.30
2022-12-16T16:35:07.242Z,-2.29
2022-12-16T16:38:30.055Z,-2.45
2022-12-16T16:41:50.499Z,-2.38
2022-12-16T16:45:10.311Z,-2.50
2022-12-16T16:48:33.927Z,-2.54
2022-12-16T16:51:53.810Z,-2.36
2022-12-16T16:55:13.913Z,-2.23
2022-12-16T16:58:48.709Z,-2.24
2022-12-16T17:02:09.071Z,-2.24
2022-12-16T17:05:30.408Z,-2.10
2022-12-16T17:08:50.348Z,-1.99
2022-12-16T17:12:10.207Z,-1.90
2022-12-16T17:15:36.074Z,-2.01
2022-12-16T17:18:55.984Z,-2.04
2022-12-16T17:22:15.839Z,-1.97
2022-12-16T17:25:36.086Z,-1.98
2022-12-16T17:28:56.168Z,-1.92
2022-12-16T17:32:16.385Z,-1.88
2022-12-16T17:35:36.521Z,-1.89
2022-12-16T17:38:59.167Z,-1.91
2022-12-16T17:42:19.104Z,-1.79
2022-12-16T17:45:39.235Z,-1.96
2022-12-16T17:49:16.059Z,-1.92
2022-12-16T17:52:36.540Z,-1.93
2022-12-16T17:55:56.981Z,-1.93
2022-12-16T17:59:16.984Z,-1.90
2022-12-16T18:02:37.571Z,-1.88
2022-12-16T18:05:57.943Z,-2.00
2022-12-16T18:09:18.418Z,-2.15
2022-12-16T18:12:39.364Z,-2.18
2022-12-16T18:15:59.454Z,-2.34
2022-12-16T18:19:19.780Z,-2.40
2022-12-16T18:22:39.993Z,-2.45
2022-12-16T18:26:00.144Z,-2.48
2022-12-16T18:29:20.625Z,-2.53
2022-12-16T18:32:40.673Z,-2.62
2022-12-16T18:36:00.928Z,-2.68
2022-12-16T18:39:21.080Z,-2.89
2022-12-16T18:42:41.028Z,-3.12
2022-12-16T18:46:10.858Z,-3.17
2022-12-16T18:49:30.924Z,-3.35
2022-12-16T18:52:50.768Z,-3.49
2022-12-16T18:56:22.436Z,-3.42
2022-12-16T18:59:42.531Z,-3.48
2022-12-16T19:03:02.503Z,-3.49
2022-12-16T19:06:22.793Z,-3.46
2022-12-16T19:09:43.012Z,-3.51
2022-12-16T19:13:03.108Z,-3.48
2022-12-16T19:16:23.553Z,-3.41
2022-12-16T19:19:43.669Z,-3.34
2022-12-16T19:23:03.640Z,-3.22
2022-12-16T19:26:24.064Z,-3.14
2022-12-16T19:29:44.341Z,-3.11
2022-12-16T19:33:07.159Z,-3.04
2022-12-16T19:36:27.234Z,-3.00
2022-12-16T19:39:47.333Z,-2.94
2022-12-16T19:43:21.492Z,-2.99
2022-12-16T19:46:42.051Z,-2.96
2022-12-16T19:50:02.828Z,-2.98
2022-12-16T19:53:25.800Z,-3.08
2022-12-16T19:56:46.310Z,-3.04
2022-12-16T20:00:06.169Z,-3.04
2022-12-16T20:03:35.701Z,-3.01
2022-12-16T20:06:56.860Z,-3.04
2022-12-16T20:10:16.704Z,-3.11
2022-12-16T20:13:37.399Z,-3.10
2022-12-16T20:16:58.148Z,-3.11
2022-12-16T20:20:18.441Z,-3.22
2022-12-16T20:23:38.601Z,-3.42
2022-12-16T20:26:59.714Z,-3.52
2022-12-16T20:30:19.612Z,-3.59
2022-12-16T20:33:39.512Z,-3.68
2022-12-16T20:37:00.235Z,-3.73
2022-12-16T20:40:20.498Z,-3.91
2022-12-16T20:43:40.843Z,-3.97
2022-12-16T20:47:01.245Z,-3.93
2022-12-16T20:50:22.076Z,-3.99
2022-12-16T20:53:42.530Z,-3.98
2022-12-16T20:57:05.999Z,-4.10
2022-12-16T21:00:28.927Z,-4.19
2022-12-16T21:03:49.319Z,-4.25
2022-12-16T21:07:09.406Z,-4.35
2022-12-16T21:10:29.812Z,-4.31
2022-12-16T21:13:50.144Z,-4.32
2022-12-16T21:17:10.903Z,-4.35
2022-12-16T21:20:31.063Z,-4.42
2022-12-16T21:23:51.697Z,-4.44
2022-12-16T21:27:13.480Z,-4.46
2022-12-16T21:30:33.740Z,-4.51
2022-12-16T21:33:53.486Z,-4.41
2022-12-16T21:37:16.872Z,-4.40
2022-12-16T21:40:36.886Z,-4.42
2022-12-16T21:43:57.202Z,-4.51
2022-12-16T21:47:17.118Z,-4.41
2022-12-16T21:50:37.465Z,-4.41
2022-12-16T21:53:57.588Z,-4.36
2022-12-16T21:57:22.362Z,-4.49
2022-12-16T22:00:42.678Z,-4.56
2022-12-16T22:04:05.791Z,-4.50
2022-12-16T22:07:25.806Z,-4.49
2022-12-16T22:10:46.236Z,-4.49
2022-12-16T22:14:06.155Z,-4.45
2022-12-16T22:17:26.501Z,-4.48
2022-12-16T22:20:46.743Z,-4.42
2022-12-16T22:24:06.854Z,-4.50
2022-12-16T22:27:26.930Z,-4.48
2022-12-16T22:30:46.977Z,-4.53
2022-12-16T22:34:08.320Z,-4.60
2022-12-16T22:37:28.436Z,-4.56
2022-12-16T22:40:48.550Z,-4.59
2022-12-16T22:44:08.741Z,-4.55
2022-12-16T22:47:29.682Z,-4.60
2022-12-16T22:50:51.794Z,-4.79
2022-12-16T22:54:12.018Z,-4.95
2022-12-16T22:57:32.226Z,-5.00
2022-12-16T23:00:52.321Z,-5.05
2022-12-16T23:04:12.483Z,-5.19
2022-12-16T23:07:32.432Z,-5.37
2022-12-16T23:10:52.383Z,-5.56
2022-12-16T23:14:12.591Z,-5.68
2022-12-16T23:17:32.714Z,-5.77
2022-12-16T23:20:53.095Z,-5.78
2022-12-16T23:24:16.559Z,-5.86
2022-12-16T23:27:36.389Z,-6.01
2022-12-16T23:30:57.858Z,-6.14
2022-12-16T23:34:17.954Z,-6.22
2022-12-16T23:37:37.983Z,-6.28
2022-12-16T23:40:57.833Z,-6.32
2022-12-16T23:44:17.957Z,-6.44
2022-12-16T23:47:37.798Z,-6.41
2022-12-16T23:50:58.140Z,-6.33
2022-12-16T23:54:18.439Z,-6.42
2022-12-16T23:57:38.277Z,-6.46
